Terminal Aerodrome Forecast
Issued by NWS Portland, ME

Home | Current Version | Previous Version | Text Only | Print | Product List | Glossary On
Versions: 1 2 3 4 5 6 7 8 9 10 11 12 13 14 15 16 17 18 19 20
000
FTUS41 KGYX 221627 AAC
TAFPWM
TAF AMD
KPWM 221627Z 2216/2312 05010G17KT 1SM -SN BKN015 OVC025
      TEMPO 2217/2221 2SM -SN BKN007
     FM222100 10008KT 2SM -SN OVC007=

USA.gov is the U.S. government's official web portal to all federal, state and local government web resources and services.